Time;durP1;ratioP1;P1;durP2;ratioP2;P2;SDS_P1;SDS_P2;PMS_P1;PMS_P2;Temp;Humidity;BMP_temperature;BMP_pressure;BME280_temperature;BME280_humidity;BME280_pressure;Samples;Min_cycle;Max_cycle;Signal;HPM_P1;HPM_P2
2020/12/07 00:01:07;;;;;;;8.00;7.20;;;4.00;99.90;;;;;;5070889;28;20457;-28
2020/12/07 00:03:34;;;;;;;7.33;6.60;;;4.00;99.90;;;;;;5069085;28;20488;-28
2020/12/07 00:06:01;;;;;;;7.80;7.10;;;4.00;99.90;;;;;;5070738;28;20485;-28
2020/12/07 00:08:29;;;;;;;7.33;6.63;;;4.10;99.90;;;;;;5071092;28;20760;-27
2020/12/07 00:10:56;;;;;;;7.00;6.30;;;4.10;99.90;;;;;;5070179;28;20432;-27
2020/12/07 00:13:27;;;;;;;7.37;6.70;;;4.20;99.90;;;;;;5071464;28;20494;-27
2020/12/07 00:15:54;;;;;;;7.17;6.50;;;4.20;99.90;;;;;;5071452;28;20880;-26
2020/12/07 00:18:24;;;;;;;7.67;6.97;;;4.20;99.90;;;;;;5060948;28;20463;-28
2020/12/07 00:20:51;;;;;;;7.10;6.40;;;4.20;99.90;;;;;;5070099;28;20420;-28
2020/12/07 00:23:19;;;;;;;7.13;6.53;;;4.20;99.90;;;;;;5069747;28;21140;-28
2020/12/07 00:25:46;;;;;;;7.70;7.00;;;4.10;99.90;;;;;;5070332;28;20443;-27
2020/12/07 00:28:25;;;;;;;7.27;6.57;;;4.10;99.90;;;;;;5071118;28;20596;-27
2020/12/07 00:30:52;;;;;;;8.20;7.50;;;4.10;99.90;;;;;;5070083;28;20447;-27
2020/12/07 00:33:20;;;;;;;8.10;7.30;;;4.00;99.90;;;;;;5061744;28;20541;-26
2020/12/07 00:35:47;;;;;;;7.57;6.87;;;3.90;99.90;;;;;;5070572;28;20835;-27
2020/12/07 00:38:15;;;;;;;9.83;8.87;;;3.90;99.90;;;;;;5070390;28;20490;-28
2020/12/07 00:40:41;;;;;;;8.27;7.40;;;3.90;99.90;;;;;;5070133;28;20522;-28
2020/12/07 00:43:08;;;;;;;8.47;7.67;;;3.90;99.90;;;;;;5066161;28;20459;-28
2020/12/07 00:45:36;;;;;;;8.80;8.00;;;3.90;99.90;;;;;;5050141;28;20430;-26
2020/12/07 00:48:04;;;;;;;8.43;7.53;;;4.00;99.90;;;;;;5052517;28;20556;-27
2020/12/07 00:50:33;;;;;;;7.87;7.17;;;4.00;99.90;;;;;;5053127;28;20502;-27
2020/12/07 00:53:05;;;;;;;7.87;7.07;;;4.00;99.90;;;;;;5053882;28;20478;-27
2020/12/07 00:55:33;;;;;;;7.83;7.13;;;4.00;99.90;;;;;;5047064;28;20437;-29
2020/12/07 00:58:00;;;;;;;8.80;8.00;;;4.00;99.90;;;;;;5052973;28;20453;-28
2020/12/07 01:00:29;;;;;;;8.20;7.50;;;4.00;99.90;;;;;;5053068;28;20441;-29
2020/12/07 01:02:57;;;;;;;9.87;8.97;;;3.90;99.90;;;;;;5051209;28;20472;-26
2020/12/07 01:05:24;;;;;;;12.30;8.70;;;3.90;99.90;;;;;;5054356;28;20977;-27
2020/12/07 01:07:54;;;;;;;8.67;7.77;;;3.90;99.90;;;;;;5052609;28;21121;-28
2020/12/07 01:10:22;;;;;;;7.73;7.03;;;4.00;99.90;;;;;;5071521;28;20768;-27
2020/12/07 01:12:50;;;;;;;9.50;8.60;;;4.00;99.90;;;;;;5056284;28;20897;-28
2020/12/07 01:15:17;;;;;;;9.50;8.50;;;4.10;99.90;;;;;;5073846;28;21105;-26
2020/12/07 01:17:45;;;;;;;8.23;7.43;;;4.20;99.90;;;;;;5072984;28;20852;-28
2020/12/07 01:20:14;;;;;;;9.50;7.80;;;4.10;99.90;;;;;;5054943;28;20436;-27
2020/12/07 01:22:42;;;;;;;9.50;8.50;;;4.10;99.90;;;;;;5071980;28;20451;-27
2020/12/07 01:25:10;;;;;;;10.37;7.73;;;4.10;99.90;;;;;;5055252;28;20582;-29
2020/12/07 01:27:47;;;;;;;8.00;7.30;;;4.10;99.90;;;;;;5072940;28;20509;-29
2020/12/07 01:30:19;;;;;;;9.57;8.57;;;4.00;99.90;;;;;;5056415;28;20526;-29
2020/12/07 01:32:47;;;;;;;8.17;7.43;;;4.00;99.90;;;;;;5056415;28;20531;-27
2020/12/07 01:35:14;;;;;;;8.13;7.37;;;3.80;99.90;;;;;;5069753;28;20571;-28
2020/12/07 01:37:42;;;;;;;7.10;6.40;;;3.80;99.90;;;;;;5065910;28;20465;-27
2020/12/07 01:40:15;;;;;;;8.13;7.20;;;3.80;99.90;;;;;;5072231;28;20453;-26
2020/12/07 01:42:45;;;;;;;9.43;7.60;;;3.90;99.90;;;;;;5073691;28;20444;-27
2020/12/07 01:45:13;;;;;;;8.07;7.10;;;3.90;99.90;;;;;;5071735;28;20783;-27
2020/12/07 01:47:41;;;;;;;7.37;6.67;;;4.00;99.90;;;;;;5066806;28;20433;-27
2020/12/07 01:50:13;;;;;;;7.20;6.50;;;4.00;99.90;;;;;;5074051;28;20559;-26
2020/12/07 01:52:43;;;;;;;8.20;7.40;;;4.00;99.90;;;;;;5073355;28;20447;-29
2020/12/07 01:55:12;;;;;;;8.70;7.90;;;4.00;99.90;;;;;;5073254;28;20546;-27
2020/12/07 01:57:56;;;;;;;8.13;7.30;;;4.10;99.90;;;;;;5067413;28;20440;-30
2020/12/07 02:00:25;;;;;;;7.50;6.80;;;4.10;99.90;;;;;;5064406;28;20429;-27
2020/12/07 02:03:01;;;;;;;7.77;6.97;;;4.20;99.90;;;;;;5070214;28;20433;-29
2020/12/07 02:05:29;;;;;;;8.23;7.47;;;4.30;99.90;;;;;;5071830;28;20444;-27
2020/12/07 02:08:14;;;;;;;7.57;6.87;;;4.30;99.90;;;;;;5054733;28;20464;-29
2020/12/07 02:10:48;;;;;;;8.07;7.00;;;4.40;99.90;;;;;;5083899;28;20468;-28
2020/12/07 02:13:19;;;;;;;7.73;7.03;;;4.40;99.90;;;;;;5069296;28;20492;-28
2020/12/07 02:15:52;;;;;;;8.07;7.37;;;4.40;99.90;;;;;;5074556;28;20443;-27
2020/12/07 02:18:24;;;;;;;6.53;5.93;;;4.40;99.90;;;;;;5092291;28;20443;-26
2020/12/07 02:20:55;;;;;;;7.27;6.67;;;4.40;99.90;;;;;;5091926;28;20432;-27
2020/12/07 02:23:49;;;;;;;8.17;7.37;;;4.40;99.90;;;;;;5091744;28;20443;-28
2020/12/07 02:26:19;;;;;;;9.80;7.27;;;4.40;99.90;;;;;;5090607;28;20893;-28
2020/12/07 02:28:50;;;;;;;6.50;5.90;;;4.30;99.90;;;;;;5089846;28;20507;-28
2020/12/07 02:31:18;;;;;;;6.80;6.20;;;4.30;99.90;;;;;;5091095;28;20744;-29
2020/12/07 02:33:46;;;;;;;7.13;6.53;;;4.30;99.90;;;;;;5092186;28;20440;-27
2020/12/07 02:36:14;;;;;;;6.93;6.33;;;4.30;99.90;;;;;;5091110;28;20468;-29
2020/12/07 02:38:49;;;;;;;5.80;5.30;;;4.30;99.90;;;;;;5073406;28;20500;-29
2020/12/07 02:41:16;;;;;;;6.63;6.03;;;4.30;99.90;;;;;;5050778;28;20912;-28
2020/12/07 02:43:45;;;;;;;6.03;5.53;;;4.30;99.90;;;;;;5051572;28;20449;-29
2020/12/07 02:46:13;;;;;;;6.40;5.90;;;4.20;99.90;;;;;;5051245;28;20906;-27
2020/12/07 02:48:41;;;;;;;5.27;4.87;;;4.20;99.90;;;;;;5052227;28;20516;-27
2020/12/07 02:51:12;;;;;;;5.70;5.20;;;4.20;99.90;;;;;;5050853;28;20429;-28
2020/12/07 02:53:39;;;;;;;7.43;6.83;;;4.20;99.90;;;;;;5050905;28;20898;-27
2020/12/07 02:56:10;;;;;;;5.80;5.30;;;4.30;99.90;;;;;;5031182;28;20882;-27
2020/12/07 02:58:46;;;;;;;6.37;5.60;;;4.40;99.90;;;;;;5031392;28;20858;-27
2020/12/07 03:01:13;;;;;;;6.50;6.00;;;4.40;99.90;;;;;;5046119;28;20462;-29
2020/12/07 03:03:40;;;;;;;6.50;6.00;;;4.50;99.90;;;;;;5054247;28;20480;-28
2020/12/07 03:06:07;;;;;;;7.27;5.60;;;4.50;99.90;;;;;;5071154;28;20864;-26
2020/12/07 03:08:35;;;;;;;5.97;5.47;;;4.50;99.90;;;;;;5064782;28;20737;-27
2020/12/07 03:11:07;;;;;;;5.53;5.03;;;4.50;99.90;;;;;;5069815;28;20437;-27
2020/12/07 03:13:38;;;;;;;5.57;5.13;;;4.40;99.90;;;;;;5071754;28;20514;-27
2020/12/07 03:16:06;;;;;;;5.47;4.97;;;4.40;99.90;;;;;;5072026;28;20433;-28
2020/12/07 03:18:36;;;;;;;4.80;4.47;;;4.40;99.90;;;;;;5072006;28;20457;-28
2020/12/07 03:21:07;;;;;;;5.10;4.70;;;4.40;99.90;;;;;;5071503;28;20532;-27
2020/12/07 03:23:37;;;;;;;4.33;3.97;;;4.40;99.90;;;;;;5061899;28;20449;-27
2020/12/07 03:26:12;;;;;;;4.40;4.00;;;4.40;99.90;;;;;;5050429;28;20449;-27
2020/12/07 03:28:41;;;;;;;4.90;4.50;;;4.30;99.90;;;;;;5042765;28;20517;-29
2020/12/07 03:31:10;;;;;;;4.37;4.00;;;4.30;99.90;;;;;;5050771;28;20456;-26
2020/12/07 03:33:37;;;;;;;4.40;4.10;;;4.30;99.90;;;;;;5043782;28;21139;-27
2020/12/07 03:36:05;;;;;;;4.23;3.93;;;4.40;99.90;;;;;;5049757;28;21212;-27
2020/12/07 03:38:35;;;;;;;4.20;3.90;;;4.40;99.90;;;;;;5043506;28;20449;-27
2020/12/07 03:41:08;;;;;;;4.27;3.87;;;4.30;99.90;;;;;;5050329;28;20434;-30
2020/12/07 03:43:40;;;;;;;4.73;4.37;;;4.30;99.90;;;;;;5051818;28;20453;-29
2020/12/07 03:46:08;;;;;;;3.60;3.40;;;4.30;99.90;;;;;;5049203;28;20441;-30
2020/12/07 03:48:38;;;;;;;4.10;3.80;;;4.30;99.90;;;;;;5044841;28;20540;-28
2020/12/07 03:51:08;;;;;;;3.80;3.60;;;4.30;99.90;;;;;;5051300;28;20457;-27
2020/12/07 03:53:36;;;;;;;4.23;3.83;;;4.20;99.90;;;;;;5049116;28;20608;-28
2020/12/07 03:56:04;;;;;;;4.63;4.17;;;4.30;99.90;;;;;;5062984;28;20438;-28
2020/12/07 03:58:35;;;;;;;4.23;3.83;;;4.30;99.90;;;;;;5053075;28;20555;-29
2020/12/07 04:01:05;;;;;;;4.27;3.97;;;4.30;99.90;;;;;;5053296;28;20722;-26
2020/12/07 04:03:34;;;;;;;4.53;4.23;;;4.30;99.90;;;;;;5069454;28;20439;-26
2020/12/07 04:06:11;;;;;;;4.10;3.80;;;4.30;99.90;;;;;;5053491;28;20459;-27
2020/12/07 04:08:38;;;;;;;3.87;3.67;;;4.30;99.90;;;;;;5053284;28;20493;-27
2020/12/07 04:11:05;;;;;;;6.20;4.80;;;4.30;99.90;;;;;;5070429;28;20437;-26
2020/12/07 04:13:34;;;;;;;5.17;3.93;;;4.30;99.90;;;;;;5068794;28;20440;-27
2020/12/07 04:16:03;;;;;;;5.07;4.67;;;4.40;99.90;;;;;;5070432;28;20461;-26
2020/12/07 04:18:31;;;;;;;4.67;4.07;;;4.50;99.90;;;;;;5067425;28;20498;-28
2020/12/07 04:21:00;;;;;;;4.10;3.80;;;4.50;99.90;;;;;;5087120;28;20523;-28
2020/12/07 04:23:28;;;;;;;4.10;3.80;;;4.50;99.90;;;;;;5094236;28;20444;-27
2020/12/07 04:25:56;;;;;;;4.27;3.93;;;4.50;99.90;;;;;;5094639;28;20439;-29
2020/12/07 04:28:23;;;;;;;4.10;3.80;;;4.60;99.90;;;;;;5094962;28;20546;-28
2020/12/07 04:30:51;;;;;;;4.10;3.80;;;4.60;99.90;;;;;;5094162;28;20440;-30
2020/12/07 04:33:21;;;;;;;4.20;3.90;;;4.60;99.90;;;;;;5095524;28;20533;-29
2020/12/07 04:35:49;;;;;;;4.00;3.70;;;4.60;99.90;;;;;;5094226;28;20439;-28
2020/12/07 04:38:16;;;;;;;4.23;3.83;;;4.60;99.90;;;;;;5093648;28;20651;-27
2020/12/07 04:40:42;;;;;;;3.67;3.47;;;4.60;99.90;;;;;;5093831;28;21010;-27
2020/12/07 04:43:12;;;;;;;4.30;4.00;;;4.60;99.90;;;;;;5089854;28;20454;-31
2020/12/07 04:45:41;;;;;;;3.97;3.67;;;4.60;99.90;;;;;;5073564;28;20979;-31
2020/12/07 04:48:13;;;;;;;3.70;3.50;;;4.60;99.90;;;;;;5055870;28;21041;-29
2020/12/07 04:50:44;;;;;;;4.47;4.07;;;4.50;99.90;;;;;;5072472;28;20446;-28
2020/12/07 04:53:12;;;;;;;4.07;3.67;;;4.60;99.90;;;;;;5055786;28;20454;-30
2020/12/07 04:55:40;;;;;;;4.40;4.10;;;4.60;99.90;;;;;;5074454;28;20433;-28
2020/12/07 04:58:07;;;;;;;3.80;3.50;;;4.60;99.90;;;;;;5074266;28;20441;-28
2020/12/07 05:00:36;;;;;;;3.70;3.50;;;4.50;99.90;;;;;;5072053;28;20526;-29
2020/12/07 05:03:03;;;;;;;3.80;3.60;;;4.50;99.90;;;;;;5071631;28;20441;-29
2020/12/07 05:05:31;;;;;;;3.57;3.37;;;4.50;99.90;;;;;;5073068;28;20986;-29
2020/12/07 05:08:00;;;;;;;3.67;3.47;;;4.40;99.90;;;;;;5071552;28;20448;-29
2020/12/07 05:10:32;;;;;;;3.60;3.30;;;4.40;99.90;;;;;;5091429;28;20447;-27
2020/12/07 05:13:09;;;;;;;3.50;3.30;;;4.40;99.90;;;;;;5092192;28;20428;-27
2020/12/07 05:15:39;;;;;;;4.53;4.00;;;4.40;99.90;;;;;;5092189;28;20919;-26
2020/12/07 05:18:07;;;;;;;12.90;8.70;;;4.50;99.90;;;;;;5089789;28;20493;-28
2020/12/07 05:20:36;;;;;;;14.60;10.40;;;4.50;99.90;;;;;;5091295;28;20873;-27
2020/12/07 05:23:04;;;;;;;25.80;15.93;;;4.50;99.90;;;;;;5089944;28;20436;-26
2020/12/07 05:25:32;;;;;;;8.53;7.70;;;4.50;99.90;;;;;;5092076;28;20447;-27
2020/12/07 05:28:03;;;;;;;7.10;5.33;;;4.50;99.90;;;;;;5090559;28;20462;-28
2020/12/07 05:30:33;;;;;;;6.13;5.27;;;4.50;99.90;;;;;;5088294;28;20444;-27
2020/12/07 05:32:59;;;;;;;6.33;5.43;;;4.60;99.90;;;;;;5083895;28;20435;-28
2020/12/07 05:35:27;;;;;;;7.40;6.70;;;4.50;99.90;;;;;;5067309;28;21080;-26
2020/12/07 05:37:54;;;;;;;5.63;5.10;;;4.40;99.90;;;;;;5068959;28;20444;-28
2020/12/07 05:40:22;;;;;;;4.43;4.13;;;4.30;99.90;;;;;;5068694;28;20445;-27
2020/12/07 05:42:50;;;;;;;6.07;5.63;;;4.20;99.90;;;;;;5069209;28;20441;-26
2020/12/07 05:45:18;;;;;;;6.33;5.87;;;4.10;99.90;;;;;;5067324;28;20723;-28
2020/12/07 05:47:50;;;;;;;5.87;5.37;;;4.00;99.90;;;;;;5061330;28;20834;-29
2020/12/07 05:50:28;;;;;;;5.50;5.10;;;4.00;99.90;;;;;;5046968;28;20521;-27
2020/12/07 05:52:59;;;;;;;6.20;5.63;;;4.00;99.90;;;;;;5044256;28;20881;-28
2020/12/07 05:55:27;;;;;;;7.80;6.13;;;4.00;99.90;;;;;;5044708;28;20539;-28
2020/12/07 05:58:03;;;;;;;6.47;5.97;;;3.90;99.90;;;;;;5046476;28;20751;-29
2020/12/07 06:00:32;;;;;;;8.17;7.27;;;3.90;99.90;;;;;;5043542;28;20430;-27
2020/12/07 06:03:01;;;;;;;14.87;11.47;;;3.90;99.90;;;;;;5043367;28;20445;-26
2020/12/07 06:05:29;;;;;;;19.30;11.97;;;3.90;99.90;;;;;;5042072;28;20632;-26
2020/12/07 06:08:04;;;;;;;10.40;9.17;;;3.80;99.90;;;;;;5042507;28;20519;-28
2020/12/07 06:10:37;;;;;;;10.60;9.13;;;3.80;99.90;;;;;;5044200;28;20541;-27
2020/12/07 06:13:12;;;;;;;8.37;6.90;;;3.80;99.90;;;;;;5044690;28;20838;-27
2020/12/07 06:15:44;;;;;;;9.23;8.03;;;3.80;99.90;;;;;;5043438;28;20445;-26
2020/12/07 06:18:24;;;;;;;8.87;8.03;;;3.80;99.90;;;;;;5040668;28;20446;-28
2020/12/07 06:20:54;;;;;;;9.80;8.87;;;3.80;99.90;;;;;;5039191;28;20763;-28
2020/12/07 06:23:30;;;;;;;11.50;10.23;;;3.80;99.90;;;;;;5039095;28;20453;-27
2020/12/07 06:26:02;;;;;;;11.43;9.50;;;3.90;99.90;;;;;;5038823;28;20781;-27
2020/12/07 06:28:34;;;;;;;14.23;9.03;;;3.90;99.90;;;;;;5045815;28;20488;-28
2020/12/07 06:31:06;;;;;;;14.63;11.20;;;3.90;99.90;;;;;;5060516;28;20444;-28
2020/12/07 06:33:39;;;;;;;15.47;10.80;;;4.00;99.90;;;;;;5058559;28;20864;-30
2020/12/07 06:36:26;;;;;;;10.07;8.80;;;4.10;99.90;;;;;;5056393;28;20433;-28
2020/12/07 06:38:56;;;;;;;10.07;6.97;;;4.10;99.90;;;;;;5032505;28;21061;-28
2020/12/07 06:41:35;;;;;;;7.83;7.13;;;4.20;99.90;;;;;;5033839;28;21229;-27
2020/12/07 06:44:05;;;;;;;9.17;8.20;;;4.20;99.90;;;;;;5033887;28;20453;-28
2020/12/07 06:46:52;;;;;;;9.70;8.80;;;4.20;99.90;;;;;;5036649;28;21077;-28
2020/12/07 06:49:22;;;;;;;13.47;11.40;;;4.30;99.90;;;;;;5049603;28;20508;-27
2020/12/07 06:51:59;;;;;;;10.30;9.30;;;4.30;99.90;;;;;;5052808;28;20484;-26
2020/12/07 06:57:23;;;;;;;9.10;8.20;;;4.40;99.90;;;;;;5051718;28;20988;-27
2020/12/07 06:59:56;;;;;;;7.80;7.10;;;4.40;99.90;;;;;;5051927;28;20932;-28
2020/12/07 07:02:23;;;;;;;9.50;8.60;;;4.40;99.90;;;;;;5050671;28;20449;-27
2020/12/07 07:04:55;;;;;;;7.80;6.83;;;4.40;99.90;;;;;;5028059;28;20815;-28
2020/12/07 07:07:25;;;;;;;11.37;7.83;;;4.40;99.90;;;;;;5046613;28;20452;-26
2020/12/07 07:09:53;;;;;;;9.40;7.53;;;4.40;99.90;;;;;;5045078;28;20476;-30
2020/12/07 07:12:25;;;;;;;12.00;8.00;;;4.50;99.90;;;;;;5043799;28;20444;-27
2020/12/07 07:14:53;;;;;;;9.10;8.00;;;4.50;99.90;;;;;;5045394;28;20536;-26
2020/12/07 07:17:22;;;;;;;8.70;7.90;;;4.50;99.90;;;;;;5046716;28;20524;-27
2020/12/07 07:19:51;;;;;;;10.40;8.37;;;4.50;99.90;;;;;;5028118;28;20453;-28
2020/12/07 07:22:19;;;;;;;10.53;7.67;;;4.50;99.90;;;;;;5028605;28;20534;-29
2020/12/07 07:25:08;;;;;;;10.43;8.70;;;4.50;99.90;;;;;;5047808;28;20571;-26
2020/12/07 07:30:24;;;;;;;8.03;7.20;;;4.60;99.90;;;;;;5044983;28;20461;-27
2020/12/07 07:32:52;;;;;;;8.93;6.50;;;4.60;99.90;;;;;;5015464;28;20496;-27
2020/12/07 07:35:22;;;;;;;8.43;7.63;;;4.50;99.90;;;;;;5021209;28;20453;-30
2020/12/07 07:37:49;;;;;;;8.20;7.30;;;4.50;99.90;;;;;;5020918;28;20555;-26
2020/12/07 07:40:19;;;;;;;8.57;7.67;;;4.50;99.90;;;;;;5023450;28;20441;-26
2020/12/07 07:42:50;;;;;;;8.93;8.10;;;4.40;99.90;;;;;;5023979;28;20473;-28
2020/12/07 07:45:19;;;;;;;8.10;7.00;;;4.50;99.90;;;;;;5026949;28;21183;-27
2020/12/07 07:47:53;;;;;;;10.60;8.40;;;4.50;99.90;;;;;;5039059;28;20463;-28
2020/12/07 07:50:44;;;;;;;10.50;8.30;;;4.60;99.90;;;;;;5033414;28;20901;-25
2020/12/07 08:16:19;;;;;;;7.70;6.90;;;5.00;99.90;;;;;;5029072;28;20552;-28
2020/12/07 08:18:48;;;;;;;10.77;9.10;;;5.10;99.90;;;;;;5027923;28;20464;-26
2020/12/07 08:21:34;;;;;;;16.47;12.67;;;5.10;99.90;;;;;;5027396;28;20445;-29
2020/12/07 08:24:10;;;;;;;19.00;13.13;;;5.30;99.90;;;;;;5038028;28;20457;-29
2020/12/07 08:26:42;;;;;;;15.90;11.60;;;5.40;99.90;;;;;;5034952;28;20452;-28
2020/12/07 08:29:12;;;;;;;13.83;11.27;;;5.50;99.90;;;;;;5047608;28;20727;-30
2020/12/07 08:31:41;;;;;;;15.10;12.83;;;5.60;99.90;;;;;;5038597;28;20433;-29
2020/12/07 08:34:12;;;;;;;10.33;8.70;;;5.60;99.90;;;;;;5034483;28;20433;-29
2020/12/07 08:36:43;;;;;;;10.47;9.37;;;5.50;99.90;;;;;;5024055;28;20895;-28
2020/12/07 08:39:09;;;;;;;10.13;8.97;;;5.50;99.90;;;;;;5021596;28;20459;-26
2020/12/07 08:41:38;;;;;;;10.27;9.10;;;5.60;99.90;;;;;;5027305;28;20452;-26
2020/12/07 08:44:08;;;;;;;15.00;10.77;;;5.70;99.90;;;;;;5020708;28;20448;-28
2020/12/07 08:46:37;;;;;;;15.43;10.67;;;6.00;99.90;;;;;;5021904;28;20476;-26
2020/12/07 08:49:08;;;;;;;15.00;11.40;;;6.10;99.90;;;;;;5020360;28;20492;-28
2020/12/07 08:51:37;;;;;;;19.30;14.10;;;6.10;99.90;;;;;;5020164;28;20463;-27
2020/12/07 08:54:05;;;;;;;18.27;12.83;;;6.20;99.90;;;;;;5023341;28;20833;-26
2020/12/07 08:56:34;;;;;;;15.50;11.70;;;6.20;99.90;;;;;;5026800;28;20444;-29
2020/12/07 08:59:03;;;;;;;16.30;10.47;;;6.30;99.90;;;;;;5030794;28;20633;-28
2020/12/07 09:01:31;;;;;;;15.30;12.10;;;6.30;99.90;;;;;;5031095;28;20440;-28
2020/12/07 09:04:01;;;;;;;13.30;10.63;;;6.40;99.90;;;;;;5047078;28;21118;-26
2020/12/07 09:06:30;;;;;;;14.80;10.50;;;6.40;99.90;;;;;;5048381;28;20578;-27
2020/12/07 09:08:58;;;;;;;13.93;10.00;;;6.40;99.90;;;;;;5042908;28;20460;-28
2020/12/07 09:11:30;;;;;;;15.63;11.50;;;6.40;99.90;;;;;;5047073;28;21167;-27
2020/12/07 09:13:57;;;;;;;49.67;34.43;;;6.50;99.90;;;;;;5041665;28;20460;-28
2020/12/07 09:16:25;;;;;;;16.10;12.47;;;6.60;99.90;;;;;;5047185;28;20437;-26
2020/12/07 09:18:52;;;;;;;21.40;13.90;;;6.60;99.90;;;;;;5040202;28;20457;-26
2020/12/07 09:21:19;;;;;;;19.17;13.83;;;6.60;99.90;;;;;;5029171;28;20452;-26
2020/12/07 09:23:48;;;;;;;17.13;11.97;;;6.70;99.90;;;;;;5028484;28;20446;-29
2020/12/07 09:26:16;;;;;;;13.57;10.17;;;6.90;99.90;;;;;;5025435;28;20450;-26
2020/12/07 09:28:43;;;;;;;7.50;5.93;;;7.00;99.90;;;;;;5023540;28;20456;-25
2020/12/07 09:31:11;;;;;;;5.73;5.20;;;7.00;99.90;;;;;;5042025;28;20448;-26
2020/12/07 09:33:38;;;;;;;5.50;5.00;;;7.10;99.90;;;;;;5044911;28;20456;-26
2020/12/07 09:36:06;;;;;;;5.37;4.97;;;7.00;99.90;;;;;;5032021;28;21061;-26
2020/12/07 09:38:34;;;;;;;5.40;5.00;;;7.00;99.90;;;;;;5041905;28;20547;-26
2020/12/07 09:41:03;;;;;;;7.27;6.63;;;7.00;99.90;;;;;;5040135;28;20459;-27
2020/12/07 09:43:30;;;;;;;7.50;6.80;;;7.10;99.90;;;;;;5036331;28;20456;-26
2020/12/07 09:45:58;;;;;;;7.17;6.60;;;7.20;99.90;;;;;;5043982;28;20506;-26
2020/12/07 09:48:24;;;;;;;5.73;5.27;;;7.30;99.90;;;;;;5030661;28;20530;-26
2020/12/07 09:50:52;;;;;;;6.43;5.83;;;7.30;99.90;;;;;;5033707;28;20470;-27
2020/12/07 09:53:19;;;;;;;5.10;4.70;;;7.40;99.90;;;;;;5024078;28;21302;-26
2020/12/07 09:55:46;;;;;;;5.33;4.87;;;7.40;99.90;;;;;;5023270;28;20650;-26
2020/12/07 09:58:14;;;;;;;4.50;4.20;;;7.50;99.90;;;;;;5038816;28;20452;-27
2020/12/07 10:00:42;;;;;;;5.07;4.70;;;7.50;99.90;;;;;;5043563;28;20448;-26
2020/12/07 10:03:09;;;;;;;4.87;4.57;;;7.50;99.90;;;;;;5043308;28;20579;-27
2020/12/07 10:05:37;;;;;;;4.60;4.30;;;7.50;99.90;;;;;;5044408;28;20456;-28
2020/12/07 10:08:05;;;;;;;6.93;5.73;;;7.50;99.90;;;;;;5042154;28;20510;-25
2020/12/07 10:10:33;;;;;;;5.70;4.37;;;7.60;99.90;;;;;;5044925;28;20790;-25
2020/12/07 10:13:01;;;;;;;5.43;4.90;;;7.60;99.90;;;;;;5043466;28;20491;-26
2020/12/07 10:15:31;;;;;;;6.67;5.43;;;7.60;99.90;;;;;;5033006;28;20489;-26
2020/12/07 10:17:57;;;;;;;5.47;4.97;;;7.70;99.90;;;;;;5035179;28;20474;-28
2020/12/07 10:20:24;;;;;;;5.73;5.33;;;7.70;99.90;;;;;;5040960;28;20569;-26
2020/12/07 10:22:51;;;;;;;8.17;7.33;;;7.70;99.90;;;;;;5044905;28;20432;-26
2020/12/07 10:25:19;;;;;;;4.70;4.30;;;7.70;99.90;;;;;;5022004;28;20926;-26
2020/12/07 10:27:48;;;;;;;6.13;5.57;;;7.60;99.90;;;;;;5022874;28;20449;-26
2020/12/07 10:30:17;;;;;;;5.13;4.73;;;7.60;99.90;;;;;;5022874;28;20481;-27
2020/12/07 10:32:49;;;;;;;5.40;4.90;;;7.60;99.90;;;;;;5020538;28;20456;-26
2020/12/07 10:35:17;;;;;;;5.70;5.17;;;7.50;99.90;;;;;;5017977;28;20518;-26
2020/12/07 10:37:46;;;;;;;5.90;5.50;;;7.40;99.90;;;;;;5019930;28;21018;-27
2020/12/07 10:40:13;;;;;;;5.27;4.83;;;7.40;99.90;;;;;;5017448;28;20559;-26
2020/12/07 10:42:40;;;;;;;6.37;5.77;;;7.40;99.90;;;;;;5023398;28;20441;-27
2020/12/07 10:45:08;;;;;;;5.90;5.30;;;7.30;99.90;;;;;;5028865;28;20449;-27
2020/12/07 10:47:35;;;;;;;8.17;6.57;;;7.40;99.90;;;;;;5025151;28;20508;-25
2020/12/07 10:50:03;;;;;;;6.00;5.30;;;7.40;99.90;;;;;;5018451;28;20473;-26
2020/12/07 10:52:31;;;;;;;5.63;5.23;;;7.40;99.90;;;;;;5038722;28;20448;-26
2020/12/07 10:54:58;;;;;;;5.20;4.70;;;7.40;99.90;;;;;;5043926;28;20464;-26
2020/12/07 10:57:26;;;;;;;8.07;5.20;;;7.40;99.90;;;;;;5044070;28;20576;-28
2020/12/07 10:59:54;;;;;;;7.33;6.73;;;7.40;99.90;;;;;;5042109;28;20952;-26
2020/12/07 11:02:25;;;;;;;6.50;5.90;;;7.50;99.90;;;;;;5041913;28;20465;-27
2020/12/07 11:04:53;;;;;;;6.40;5.90;;;7.50;99.90;;;;;;5042995;28;20551;-28
2020/12/07 11:07:23;;;;;;;7.27;6.67;;;7.50;99.90;;;;;;5042782;28;20757;-27
2020/12/07 11:09:55;;;;;;;6.77;6.10;;;7.50;99.90;;;;;;5043442;28;20573;-28
2020/12/07 11:12:24;;;;;;;6.20;5.70;;;7.40;99.90;;;;;;5040909;28;21002;-28
2020/12/07 11:14:51;;;;;;;5.90;5.37;;;7.40;99.90;;;;;;5043256;28;20472;-27
2020/12/07 11:17:17;;;;;;;5.97;5.47;;;7.40;99.90;;;;;;5047445;28;20444;-26
2020/12/07 11:19:44;;;;;;;6.50;5.90;;;7.30;99.90;;;;;;5044250;28;20445;-27
2020/12/07 11:22:12;;;;;;;5.93;5.43;;;7.30;99.90;;;;;;5043818;28;20459;-27
2020/12/07 11:24:40;;;;;;;5.93;5.37;;;7.30;99.90;;;;;;5043641;28;20575;-26
2020/12/07 11:27:07;;;;;;;6.47;5.90;;;7.40;99.90;;;;;;5042146;28;20436;-26
2020/12/07 11:29:34;;;;;;;7.50;6.90;;;7.40;99.90;;;;;;5043183;28;20473;-27
2020/12/07 11:32:01;;;;;;;7.17;6.57;;;7.50;99.90;;;;;;5043283;28;20437;-28
2020/12/07 11:34:30;;;;;;;7.20;6.50;;;7.60;99.90;;;;;;5046942;28;20538;-27
2020/12/07 11:36:57;;;;;;;8.60;7.57;;;7.60;99.90;;;;;;5044599;28;20445;-30
2020/12/07 11:39:35;;;;;;;11.20;9.20;;;7.60;99.90;;;;;;5042572;28;20460;-26
2020/12/07 11:42:17;;;;;;;11.27;8.63;;;7.60;99.90;;;;;;5040688;28;20536;-28
2020/12/07 11:44:45;;;;;;;12.07;9.30;;;7.60;99.90;;;;;;5024519;28;20536;-26
2020/12/07 11:47:13;;;;;;;12.93;9.33;;;7.70;99.90;;;;;;5033260;28;20749;-28
2020/12/07 11:49:40;;;;;;;12.90;9.10;;;7.60;99.90;;;;;;5032814;28;20466;-26
2020/12/07 11:52:13;;;;;;;12.20;9.20;;;7.50;99.90;;;;;;5026034;28;20446;-28
2020/12/07 11:54:42;;;;;;;12.90;10.17;;;7.50;99.90;;;;;;5034300;28;20448;-28
2020/12/07 11:57:09;;;;;;;13.80;10.27;;;7.30;99.90;;;;;;5046097;28;20436;-26
2020/12/07 11:59:36;;;;;;;12.40;9.67;;;7.30;99.90;;;;;;5044464;28;20440;-27
2020/12/07 12:02:04;;;;;;;14.23;9.47;;;7.40;99.90;;;;;;5026205;28;20788;-26
2020/12/07 12:04:33;;;;;;;10.40;8.40;;;7.40;99.90;;;;;;5031686;28;20452;-26
2020/12/07 12:07:00;;;;;;;12.03;8.73;;;7.50;99.90;;;;;;5021069;28;20449;-28
2020/12/07 12:09:26;;;;;;;17.80;12.70;;;7.40;99.90;;;;;;5025162;28;21074;-26
2020/12/07 12:11:53;;;;;;;19.83;13.07;;;7.40;99.90;;;;;;5023838;28;20443;-27
2020/12/07 12:14:20;;;;;;;14.73;11.00;;;7.50;99.90;;;;;;5021671;28;20448;-26
2020/12/07 12:16:48;;;;;;;15.90;13.40;;;7.50;99.90;;;;;;5006061;28;20448;-27
2020/12/07 12:19:15;;;;;;;15.90;13.50;;;7.50;99.90;;;;;;5021124;28;20451;-26
2020/12/07 12:21:42;;;;;;;12.50;10.93;;;7.60;99.90;;;;;;5020217;28;20871;-26
2020/12/07 12:24:08;;;;;;;13.67;12.27;;;7.50;99.90;;;;;;5023463;28;20460;-26
2020/12/07 12:26:36;;;;;;;15.20;13.00;;;7.40;99.90;;;;;;5025438;28;20900;-27
2020/12/07 12:29:05;;;;;;;12.57;10.63;;;7.40;99.90;;;;;;5005243;28;21199;-27
2020/12/07 12:31:33;;;;;;;14.80;13.20;;;7.30;99.90;;;;;;5025271;28;20492;-28
2020/12/07 12:34:01;;;;;;;17.07;13.03;;;7.20;99.90;;;;;;5041401;28;20436;-29
2020/12/07 12:36:29;;;;;;;10.37;9.27;;;7.20;99.90;;;;;;5045730;28;20510;-26
2020/12/07 12:38:59;;;;;;;15.17;11.23;;;7.20;99.90;;;;;;5044746;28;20476;-29
2020/12/07 12:41:40;;;;;;;11.33;8.30;;;7.10;99.90;;;;;;5042661;28;20445;-25
2020/12/07 12:44:11;;;;;;;9.77;8.77;;;7.10;99.90;;;;;;5028583;28;20436;-26
2020/12/07 12:46:39;;;;;;;10.43;8.80;;;7.10;99.90;;;;;;5032069;28;20926;-25
2020/12/07 12:49:06;;;;;;;9.37;8.37;;;7.20;99.90;;;;;;5021280;28;20687;-27
2020/12/07 12:51:32;;;;;;;9.03;8.13;;;7.20;99.90;;;;;;5019085;28;20602;-28
2020/12/07 12:54:00;;;;;;;8.63;7.73;;;7.20;99.90;;;;;;5018857;28;20460;-27
2020/12/07 12:56:26;;;;;;;10.33;8.27;;;7.20;99.90;;;;;;5019281;28;20449;-27
2020/12/07 12:58:53;;;;;;;8.43;7.63;;;7.10;99.90;;;;;;5019802;28;20441;-27
2020/12/07 13:01:19;;;;;;;8.57;7.77;;;7.00;99.90;;;;;;5019250;28;20457;-28
2020/12/07 13:03:47;;;;;;;8.23;7.53;;;6.90;99.90;;;;;;5019052;28;20856;-26
2020/12/07 13:06:13;;;;;;;8.57;7.73;;;6.90;99.90;;;;;;5021478;28;20449;-26
2020/12/07 13:08:40;;;;;;;10.90;8.27;;;6.90;99.90;;;;;;5017228;28;20651;-28
2020/12/07 13:11:07;;;;;;;8.23;7.23;;;6.90;99.90;;;;;;5017322;28;20644;-26
2020/12/07 13:13:37;;;;;;;8.97;8.07;;;7.00;99.90;;;;;;5018087;28;20734;-26
2020/12/07 13:16:09;;;;;;;8.80;7.80;;;6.90;99.90;;;;;;5020170;28;20438;-27
2020/12/07 13:18:44;;;;;;;10.17;7.70;;;6.90;99.90;;;;;;5019396;28;20553;-27
2020/12/07 13:21:18;;;;;;;8.90;7.20;;;6.90;99.90;;;;;;5021254;28;20710;-27
2020/12/07 13:23:50;;;;;;;7.77;7.07;;;6.90;99.90;;;;;;5018077;28;20454;-28
2020/12/07 13:26:24;;;;;;;8.13;7.33;;;6.80;99.90;;;;;;5016794;28;20460;-27
2020/12/07 13:28:50;;;;;;;8.27;7.57;;;6.80;99.90;;;;;;5019701;28;20795;-28
2020/12/07 13:31:17;;;;;;;8.10;7.40;;;6.70;99.90;;;;;;5016628;28;20644;-27
2020/12/07 13:33:44;;;;;;;11.33;8.47;;;6.60;99.90;;;;;;5025035;28;20801;-26